Wolgastern — CQLH — position and weather

sailwx.info

Track history (hours):
 
Tides and Currents Weather Stations Pressure Air Temp Water Temp Dewpoint Dewpoint Depression Visibility Wind Speed Wind Dir Waves Ship Positions

Wolgastern

Last reported at 2017-Aug-18 10:40 UTC. Time now 2017-Aug-18 23:53 UTC.
Position N 36°45' W 007°48'.

Length 162 m; draft 6.3 m.

Type: Ship. MMSI: 255804950.

Date/timePositionNaut miles runAvg speedWind from/ knotsBaromVisibWave heightAir tempDewpointWater temp
2017-Aug-18 10:40N 36°45' W 007°48'213.4
2017-Aug-18 10:30N 36°44' W 007°50'713.6
2017-Aug-18 10:00N 36°41' W 007°58'713.6
2017-Aug-18 09:30N 36°39' W 008°06'713.4
2017-Aug-18 09:00N 36°36' W 008°14'714.0
2017-Aug-18 08:30N 36°33' W 008°22'714.3
2017-Aug-18 08:00N 36°31' W 008°30'713.9
2017-Aug-18 07:30N 36°28' W 008°38'813.5
2017-Aug-18 06:55N 36°25' W 008°47'513.1
2017-Aug-18 06:31N 36°23' W 008°53'713.0
2017-Aug-18 06:01N 36°21' W 009°01'713.5
2017-Aug-18 05:30N 36°22' W 009°09'713.1
2017-Aug-18 05:01N 36°23' W 009°17'613.0
2017-Aug-18 04:30N 36°24' W 009°25'713.1
2017-Aug-18 03:59N 36°25' W 009°34'613.1
2017-Aug-18 03:31N 36°25' W 009°42'713.1
2017-Aug-18 02:59N 36°26' W 009°50'613.0
2017-Aug-18 02:30N 36°27' W 009°58'612.9
2017-Aug-18 02:01N 36°28' W 010°06'612.6
2017-Aug-18 01:30N 36°29' W 010°14'712.7
2017-Aug-18 00:58N 36°29' W 010°22'612.7
2017-Aug-18 00:31N 36°30' W 010°29'713.1
2017-Aug-18 00:01N 36°31' W 010°37'713.0
2017-Aug-17 23:30N 36°32' W 010°45'712.9
2017-Aug-17 23:00N 36°32' W 010°53'712.9
2017-Aug-17 22:29N 36°33' W 011°02'713.0
2017-Aug-17 21:57N 36°34' W 011°10'613.2
2017-Aug-17 21:30N 36°35' W 011°17'713.1
2017-Aug-17 21:00N 36°37' W 011°25'713.2
2017-Aug-17 20:31N 36°38' W 011°33'713.4
2017-Aug-17 20:00N 36°40' W 011°41'713.6
2017-Aug-17 19:31N 36°42' W 011°49'713.6
2017-Aug-17 19:00N 36°43' W 011°58'713.9
2017-Aug-17 18:30N 36°45' W 012°06'713.9
2017-Aug-17 18:00N 36°47' W 012°14'14513.9
2017-Aug-17 07:34N 37°19' W 015°12'113.7
2017-Aug-17 07:30N 37°20' W 015°13'714.3
2017-Aug-17 07:00N 37°21' W 015°21'714.1
2017-Aug-17 06:31N 37°23' W 015°30'713.9
2017-Aug-17 06:00N 37°24' W 015°39'714.3
2017-Aug-17 05:30N 37°25' W 015°47'1514.0
2017-Aug-17 04:27N 37°28' W 016°06'714.0
2017-Aug-17 03:59N 37°30' W 016°14'714.2
2017-Aug-17 03:30N 37°31' W 016°22'1013.9
2017-Aug-17 02:48N 37°33' W 016°34'1713.9
2017-Aug-17 01:35N 37°36' W 016°55'4214.1
2017-Aug-16 22:38N 37°44' W 017°47'15213.0
2017-Aug-16 10:55N 38°10' W 020°57'913.6
2017-Aug-16 10:15N 38°11' W 021°08'613.8
2017-Aug-16 09:50N 38°12' W 021°15'613.7
2017-Aug-16 09:23N 38°13' W 021°23'713.8
2017-Aug-16 08:55N 38°14' W 021°31'1013.3
2017-Aug-16 08:08N 38°15' W 021°44'213.9
2017-Aug-16 08:00N 38°15' W 021°47'1313.1
2017-Aug-16 07:03N 38°17' W 022°03'112.0
2017-Aug-16 07:00N 38°17' W 022°03'713.2
2017-Aug-16 06:30N 38°18' W 022°12'713.3
2017-Aug-16 05:59N 38°19' W 022°20'713.0
2017-Aug-16 05:27N 38°20' W 022°29'613.3
2017-Aug-16 05:00N 38°21' W 022°36'713.3
2017-Aug-16 04:30N 38°22' W 022°45'713.4
2017-Aug-16 04:00N 38°23' W 022°53'613.1
2017-Aug-16 03:30N 38°23' W 023°02'1112.8
2017-Aug-16 02:40N 38°25' W 023°15'213.0
2017-Aug-16 02:29N 38°25' W 023°18'612.8
2017-Aug-16 02:01N 38°26' W 023°26'712.9
2017-Aug-16 01:30N 38°27' W 023°34'613.1
2017-Aug-16 01:01N 38°27' W 023°42'612.9
2017-Aug-16 00:30N 38°28' W 023°51'713.1
2017-Aug-16 00:00N 38°29' W 023°59'613.0
2017-Aug-15 23:30N 38°30' W 024°07'713.3
2017-Aug-15 23:00N 38°30' W 024°16'612.9
2017-Aug-15 22:30N 38°31' W 024°24'612.8
2017-Aug-15 22:00N 38°32' W 024°32'613.0
2017-Aug-15 21:30N 38°33' W 024°40'713.0
2017-Aug-15 21:00N 38°33' W 024°49'713.4
2017-Aug-15 20:31N 38°34' W 024°57'713.2
2017-Aug-15 20:00N 38°35' W 025°06'713.6
2017-Aug-15 19:30N 38°35' W 025°14'713.6
2017-Aug-15 19:00N 38°36' W 025°23'713.1
2017-Aug-15 18:30N 38°37' W 025°31'713.4
2017-Aug-15 18:00N 38°37' W 025°40'713.5
2017-Aug-15 17:30N 38°38' W 025°48'713.6
2017-Aug-15 17:00N 38°39' W 025°57'713.5
2017-Aug-15 16:30N 38°39' W 026°06'713.8
2017-Aug-15 16:00N 38°40' W 026°14'713.7
2017-Aug-15 15:31N 38°41' W 026°23'713.9
2017-Aug-15 15:00N 38°41' W 026°32'510.8
2017-Aug-15 14:30N 38°42' W 026°39'1 1.2
2017-Aug-15 14:01N 38°42' W 026°39'2 3.3
2017-Aug-15 13:30N 38°42' W 026°42'612.8
2017-Aug-15 13:00N 38°43' W 026°50'713.5
2017-Aug-15 12:30N 38°43' W 026°58'4 0.2
2017-Aug-14 13:15N 38°43' W 027°03'0 1.6
2017-Aug-14 12:58N 38°43' W 027°03'4 5.7
2017-Aug-14 12:12N 38°41' W 026°59'310.5
2017-Aug-14 11:57N 38°39' W 026°56'613.1
2017-Aug-14 11:31N 38°35' W 026°51'713.4
2017-Aug-14 11:00N 38°30' W 026°45'612.0
2017-Aug-14 10:30N 38°25' W 026°40'612.4
2017-Aug-14 10:00N 38°21' W 026°34'612.7
2017-Aug-14 09:31N 38°16' W 026°29'612.4
2017-Aug-14 09:00N 38°12' W 026°24'612.4
2017-Aug-14 08:30N 38°07' W 026°18'612.7
2017-Aug-14 08:00N 38°03' W 026°13'612.5
2017-Aug-14 07:30N 37°58' W 026°07'4 7.5
2017-Aug-14 07:00N 37°55' W 026°05'1 1.8
2017-Aug-14 06:30N 37°56' W 026°05'1 1.4
2017-Aug-14 06:00N 37°56' W 026°05'2 3.3
2017-Aug-14 05:30N 37°55' W 026°03'612.0
2017-Aug-14 05:00N 37°51' W 025°58'612.6
2017-Aug-14 04:31N 37°46' W 025°53'611.9
2017-Aug-14 04:00N 37°42' W 025°47'612.1
2017-Aug-14 03:30N 37°43' W 025°40'1 1.6
2017-Aug-14 03:00N 37°44' W 025°40'0 0.0
2017-Aug-14 02:30N 37°44' W 025°40'0 0.0
2017-Aug-14 01:57N 37°44' W 025°40'0 0.0
2017-Aug-14 01:30N 37°44' W 025°40'0 0.0
2017-Aug-14 01:00N 37°44' W 025°40'0 0.0
2017-Aug-14 00:30N 37°44' W 025°40'0 0.0
2017-Aug-14 00:00N 37°44' W 025°40'0 0.0
2017-Aug-13 23:30N 37°44' W 025°40'0 0.0
2017-Aug-13 23:00N 37°44' W 025°40'0 0.0
2017-Aug-13 22:31N 37°44' W 025°40'0 0.0
2017-Aug-13 22:00N 37°44' W 025°40'0 0.0
2017-Aug-13 21:30N 37°44' W 025°40'0 0.0
2017-Aug-13 21:00N 37°44' W 025°40'0 0.0
2017-Aug-13 20:30N 37°44' W 025°40'0 0.0
2017-Aug-13 19:55N 37°44' W 025°40'0 0.0
2017-Aug-13 19:30N 37°44' W 025°40'0 0.0
2017-Aug-13 19:00N 37°44' W 025°40'0 0.0
2017-Aug-13 18:27N 37°44' W 025°40'0 0.0
2017-Aug-13 18:00N 37°44' W 025°40'0 0.0
2017-Aug-13 17:28N 37°44' W 025°40'0 0.0
2017-Aug-13 17:00N 37°44' W 025°40'0 0.0
2017-Aug-13 16:30N 37°44' W 025°40'0 0.0
2017-Aug-13 16:00N 37°44' W 025°40'0 0.0
2017-Aug-13 15:30N 37°44' W 025°40'0 0.0
2017-Aug-13 14:57N 37°44' W 025°40'0 0.0
2017-Aug-13 14:30N 37°44' W 025°40'0 0.0
2017-Aug-13 14:00N 37°44' W 025°40'0 0.0
2017-Aug-13 13:30N 37°44' W 025°40'0 0.0
2017-Aug-13 13:00N 37°44' W 025°40'0 0.0
2017-Aug-13 12:30N 37°44' W 025°40'0 0.0
2017-Aug-13 12:00N 37°44' W 025°40'0 0.0
2017-Aug-13 11:30N 37°44' W 025°40'0 0.0
2017-Aug-13 11:00N 37°44' W 025°40'0 0.0
2017-Aug-13 10:30N 37°44' W 025°40'0 0.0
2017-Aug-13 10:00N 37°44' W 025°40'0 0.0
2017-Aug-13 09:30N 37°44' W 025°40'0 0.0
2017-Aug-13 09:00N 37°44' W 025°40'0 0.0
2017-Aug-13 08:28N 37°44' W 025°40'0 0.0
2017-Aug-13 08:00N 37°44' W 025°40'0 0.0
2017-Aug-13 07:30N 37°44' W 025°40'0 0.0
2017-Aug-13 07:00N 37°44' W 025°40'0 0.0
2017-Aug-13 06:30N 37°44' W 025°40'0 0.0
2017-Aug-13 06:01N 37°44' W 025°40'0 0.0
2017-Aug-13 05:30N 37°44' W 025°40'0 0.0
2017-Aug-13 05:00N 37°44' W 025°40'0 0.0
2017-Aug-13 04:30N 37°44' W 025°40'0 0.0
2017-Aug-13 04:00N 37°44' W 025°40'0 0.0
2017-Aug-13 03:30N 37°44' W 025°40'0 0.0
2017-Aug-13 03:00N 37°44' W 025°40'0 0.0
2017-Aug-13 02:30N 37°44' W 025°40'0 0.0
2017-Aug-13 02:00N 37°44' W 025°40'0 0.0
2017-Aug-13 01:30N 37°44' W 025°40'0 0.0
2017-Aug-13 01:00N 37°44' W 025°40'0 0.0
2017-Aug-13 00:30N 37°44' W 025°40'0 0.0
2017-Aug-12 23:57N 37°44' W 025°40'0 0.0
2017-Aug-12 23:30N 37°44' W 025°40'0 0.0
2017-Aug-12 23:00N 37°44' W 025°40'0 0.0
2017-Aug-12 22:30N 37°44' W 025°40'0 0.0
2017-Aug-12 22:00N 37°44' W 025°40'0 0.0
2017-Aug-12 21:31N 37°44' W 025°40'0 0.0
2017-Aug-12 21:00N 37°44' W 025°40'0 0.0
2017-Aug-12 20:30N 37°44' W 025°40'0 0.0
2017-Aug-12 20:00N 37°44' W 025°40'0 0.0
2017-Aug-12 19:25N 37°44' W 025°40'0 0.0
2017-Aug-12 18:58N 37°44' W 025°40'0 0.0
2017-Aug-12 18:30N 37°44' W 025°40'0 0.0
2017-Aug-12 18:00N 37°44' W 025°40'0 0.0
2017-Aug-12 17:30N 37°44' W 025°40'0 0.0
2017-Aug-12 16:57N 37°44' W 025°40'0 0.0
2017-Aug-12 16:30N 37°44' W 025°40'0 0.4
2017-Aug-12 16:00N 37°44' W 025°40'2 3.8
2017-Aug-12 15:31N 37°43' W 025°38'1 2.2
2017-Aug-12 15:00N 37°43' W 025°37'510.5
2017-Aug-12 14:31N 37°40' W 025°31'713.4
2017-Aug-12 14:01N 37°40' W 025°22'713.2
2017-Aug-12 13:30N 37°40' W 025°14'713.5
2017-Aug-12 13:00N 37°40' W 025°05'713.4
2017-Aug-12 12:30N 37°40' W 024°57'713.2
2017-Aug-12 12:00N 37°41' W 024°49'713.4
2017-Aug-12 11:30N 37°41' W 024°40'713.4
2017-Aug-12 11:00N 37°41' W 024°32'613.2
2017-Aug-12 10:30N 37°41' W 024°23'713.2
2017-Aug-12 10:00N 37°41' W 024°15'713.3
2017-Aug-12 09:30N 37°41' W 024°07'713.3
2017-Aug-12 09:00N 37°41' W 023°58'713.3
2017-Aug-12 08:30N 37°41' W 023°50'713.2
2017-Aug-12 08:00N 37°42' W 023°41'5913.4
2017-Aug-12 03:36N 37°43' W 022°27'33313.4
2017-Aug-11 02:45N 37°49' W 015°25'513.4
2017-Aug-11 02:23N 37°49' W 015°19'7812.9
2017-Aug-10 20:20N 37°50' W 013°40'413.1
2017-Aug-10 20:00N 37°50' W 013°34'4112.8
2017-Aug-10 16:49N 37°51' W 012°42'612.6
2017-Aug-10 16:21N 37°51' W 012°35'411.7
2017-Aug-10 15:58N 37°51' W 012°29'511.8
2017-Aug-10 15:30N 37°51' W 012°23'711.7
2017-Aug-10 14:56N 37°52' W 012°14'2211.4
2017-Aug-10 12:58N 37°52' W 011°46'611.6
2017-Aug-10 12:28N 37°52' W 011°38'4112.0
2017-Aug-10 09:05N 37°53' W 010°47'212.0
2017-Aug-10 08:54N 37°53' W 010°44'511.8
2017-Aug-10 08:30N 37°53' W 010°38'611.7
2017-Aug-10 08:01N 37°53' W 010°31'611.9
2017-Aug-10 07:30N 37°53' W 010°23'611.4
2017-Aug-10 07:01N 37°53' W 010°16'611.1
2017-Aug-10 06:30N 37°53' W 010°09'610.9
2017-Aug-10 06:00N 37°53' W 010°02'510.8
2017-Aug-10 05:30N 37°54' W 009°55'511.0
2017-Aug-10 05:00N 37°54' W 009°48'510.7
2017-Aug-10 04:30N 37°54' W 009°41'510.7
2017-Aug-10 04:00N 37°54' W 009°35'510.8
2017-Aug-10 03:30N 37°54' W 009°28'611.6
2017-Aug-10 03:00N 37°54' W 009°20'611.6
2017-Aug-10 02:31N 37°54' W 009°13'611.8
2017-Aug-10 02:00N 37°54' W 009°05'612.4
2017-Aug-10 01:30N 37°54' W 008°58'4 8.9
2017-Aug-10 01:01N 37°57' W 008°53'0 0.3
2017-Aug-10 00:30N 37°57' W 008°53'0 0.0
2017-Aug-10 00:00N 37°57' W 008°53'0 0.0
2017-Aug-09 23:30N 37°57' W 008°53'0 0.0
2017-Aug-09 23:00N 37°57' W 008°53'0 0.0
2017-Aug-09 22:30N 37°57' W 008°53'0 0.0
2017-Aug-09 22:00N 37°57' W 008°53'0 0.0
2017-Aug-09 21:30N 37°57' W 008°53'0 0.0
2017-Aug-09 21:00N 37°57' W 008°53'0 0.0
2017-Aug-09 20:30N 37°57' W 008°53'0 0.0
2017-Aug-09 20:00N 37°57' W 008°53'0 0.0
2017-Aug-09 19:30N 37°57' W 008°53'0 0.0
2017-Aug-09 19:00N 37°57' W 008°53'0 0.0
2017-Aug-09 18:30N 37°57' W 008°53'0 0.0
2017-Aug-09 18:00N 37°57' W 008°53'0 0.0
2017-Aug-09 17:30N 37°57' W 008°53'0 0.0
2017-Aug-09 17:00N 37°57' W 008°53'0 0.0
2017-Aug-09 16:30N 37°57' W 008°53'0 0.0
2017-Aug-09 16:00N 37°57' W 008°53'0 0.0
2017-Aug-09 15:30N 37°57' W 008°53'0 0.0
2017-Aug-09 15:00N 37°57' W 008°53'0 0.0
2017-Aug-09 14:30N 37°57' W 008°53'0 0.0
2017-Aug-09 14:00N 37°57' W 008°53'0 0.0
2017-Aug-09 13:30N 37°57' W 008°53'0 0.0
2017-Aug-09 13:00N 37°57' W 008°53'0 0.0
2017-Aug-09 12:30N 37°57' W 008°53'0 0.0
2017-Aug-09 12:00N 37°57' W 008°53'0 0.0
2017-Aug-09 11:30N 37°57' W 008°53'0 0.0
2017-Aug-09 11:00N 37°57' W 008°53'0 0.0
2017-Aug-09 10:27N 37°57' W 008°53'0 0.0
2017-Aug-09 10:00N 37°57' W 008°53'0 0.0
2017-Aug-09 09:27N 37°57' W 008°53'0 0.0
2017-Aug-09 09:00N 37°57' W 008°53'0 0.0
2017-Aug-09 08:30N 37°57' W 008°53'0 0.0
2017-Aug-09 08:00N 37°57' W 008°53'0 0.0
2017-Aug-09 07:30N 37°57' W 008°53'0 0.0
2017-Aug-09 07:00N 37°57' W 008°53'0 0.0
2017-Aug-09 06:30N 37°57' W 008°53'0 0.0
2017-Aug-09 06:00N 37°57' W 008°53'0 0.0
2017-Aug-09 05:30N 37°57' W 008°53'0 0.0
2017-Aug-09 05:00N 37°57' W 008°53'0 0.0
2017-Aug-09 04:30N 37°57' W 008°53'0 0.0
2017-Aug-09 04:00N 37°57' W 008°53'0 0.0
2017-Aug-09 03:30N 37°57' W 008°53'0 0.0
2017-Aug-09 03:00N 37°57' W 008°53'0 0.0
2017-Aug-09 02:27N 37°57' W 008°53'0 0.0
2017-Aug-09 02:00N 37°57' W 008°53'0 0.0
2017-Aug-09 01:30N 37°57' W 008°53'0 0.0
2017-Aug-09 01:00N 37°57' W 008°53'0 0.0
2017-Aug-09 00:30N 37°57' W 008°53'0 0.0
2017-Aug-09 00:00N 37°57' W 008°53'0 0.0
2017-Aug-08 23:30N 37°57' W 008°53'0 0.0
2017-Aug-08 23:00N 37°57' W 008°53'0 0.0
2017-Aug-08 22:30N 37°57' W 008°53'0 0.0
2017-Aug-08 22:00N 37°57' W 008°53'0 0.0
2017-Aug-08 21:30N 37°57' W 008°53'0 0.0
2017-Aug-08 21:00N 37°57' W 008°53'0 0.0
2017-Aug-08 20:30N 37°57' W 008°53'0 0.0
2017-Aug-08 20:00N 37°57' W 008°53'0 0.0
2017-Aug-08 19:30N 37°57' W 008°53'0 0.0
2017-Aug-08 19:00N 37°57' W 008°53'0 0.0
2017-Aug-08 18:30N 37°57' W 008°53'0 0.0
2017-Aug-08 18:00N 37°57' W 008°53'0 0.0
2017-Aug-08 17:30N 37°57' W 008°53'0 0.0
2017-Aug-08 17:00N 37°57' W 008°53'0 0.0
2017-Aug-08 16:27N 37°57' W 008°53'0 0.0
2017-Aug-08 16:00N 37°57' W 008°53'0 0.0
2017-Aug-08 15:30N 37°57' W 008°53'0 0.0
2017-Aug-08 15:00N 37°57' W 008°53'0 0.0
2017-Aug-08 14:27N 37°57' W 008°53'0 0.0
2017-Aug-08 14:00N 37°57' W 008°53'0 0.0
2017-Aug-08 13:30N 37°57' W 008°53'0 0.0
2017-Aug-08 13:00N 37°57' W 008°53'0 0.0
2017-Aug-08 12:30N 37°57' W 008°53'0 0.0
2017-Aug-08 11:57N 37°57' W 008°53'0 0.0
2017-Aug-08 11:30N 37°57' W 008°53'0 0.0
2017-Aug-08 11:00N 37°57' W 008°53'  
Track history (hours):
 
Tides and Currents Weather Stations Pressure Air Temp Water Temp Dewpoint Dewpoint Depression Visibility Wind Speed Wind Dir Waves Ship Positions

Wolgastern

Last reported at 2017-Aug-18 10:40 UTC. Time now 2017-Aug-18 23:53 UTC.
Position N 36°45' W 007°48'.

Length 162 m; draft 6.3 m.

Type: Ship. MMSI: 255804950.

Date/timePositionNaut miles runAvg speedWind from/ knotsBaromVisibWave heightAir tempDewpointWater temp
2017-Aug-18 10:40N 36°45' W 007°48'213.4
2017-Aug-18 10:30N 36°44' W 007°50'713.6
2017-Aug-18 10:00N 36°41' W 007°58'713.6
2017-Aug-18 09:30N 36°39' W 008°06'713.4
2017-Aug-18 09:00N 36°36' W 008°14'714.0
2017-Aug-18 08:30N 36°33' W 008°22'714.3
2017-Aug-18 08:00N 36°31' W 008°30'713.9
2017-Aug-18 07:30N 36°28' W 008°38'813.5
2017-Aug-18 06:55N 36°25' W 008°47'513.1
2017-Aug-18 06:31N 36°23' W 008°53'713.0
2017-Aug-18 06:01N 36°21' W 009°01'713.5
2017-Aug-18 05:30N 36°22' W 009°09'713.1
2017-Aug-18 05:01N 36°23' W 009°17'613.0
2017-Aug-18 04:30N 36°24' W 009°25'713.1
2017-Aug-18 03:59N 36°25' W 009°34'613.1
2017-Aug-18 03:31N 36°25' W 009°42'713.1
2017-Aug-18 02:59N 36°26' W 009°50'613.0
2017-Aug-18 02:30N 36°27' W 009°58'612.9
2017-Aug-18 02:01N 36°28' W 010°06'612.6
2017-Aug-18 01:30N 36°29' W 010°14'712.7
2017-Aug-18 00:58N 36°29' W 010°22'612.7
2017-Aug-18 00:31N 36°30' W 010°29'713.1
2017-Aug-18 00:01N 36°31' W 010°37'713.0
2017-Aug-17 23:30N 36°32' W 010°45'712.9
2017-Aug-17 23:00N 36°32' W 010°53'712.9
2017-Aug-17 22:29N 36°33' W 011°02'713.0
2017-Aug-17 21:57N 36°34' W 011°10'613.2
2017-Aug-17 21:30N 36°35' W 011°17'713.1
2017-Aug-17 21:00N 36°37' W 011°25'713.2
2017-Aug-17 20:31N 36°38' W 011°33'713.4
2017-Aug-17 20:00N 36°40' W 011°41'713.6
2017-Aug-17 19:31N 36°42' W 011°49'713.6
2017-Aug-17 19:00N 36°43' W 011°58'713.9
2017-Aug-17 18:30N 36°45' W 012°06'713.9
2017-Aug-17 18:00N 36°47' W 012°14'14513.9
2017-Aug-17 07:34N 37°19' W 015°12'113.7
2017-Aug-17 07:30N 37°20' W 015°13'714.3
2017-Aug-17 07:00N 37°21' W 015°21'714.1
2017-Aug-17 06:31N 37°23' W 015°30'713.9
2017-Aug-17 06:00N 37°24' W 015°39'714.3
2017-Aug-17 05:30N 37°25' W 015°47'1514.0
2017-Aug-17 04:27N 37°28' W 016°06'714.0
2017-Aug-17 03:59N 37°30' W 016°14'714.2
2017-Aug-17 03:30N 37°31' W 016°22'1013.9
2017-Aug-17 02:48N 37°33' W 016°34'1713.9
2017-Aug-17 01:35N 37°36' W 016°55'4214.1
2017-Aug-16 22:38N 37°44' W 017°47'15213.0
2017-Aug-16 10:55N 38°10' W 020°57'913.6
2017-Aug-16 10:15N 38°11' W 021°08'613.8
2017-Aug-16 09:50N 38°12' W 021°15'613.7
2017-Aug-16 09:23N 38°13' W 021°23'713.8
2017-Aug-16 08:55N 38°14' W 021°31'1013.3
2017-Aug-16 08:08N 38°15' W 021°44'213.9
2017-Aug-16 08:00N 38°15' W 021°47'1313.1
2017-Aug-16 07:03N 38°17' W 022°03'112.0
2017-Aug-16 07:00N 38°17' W 022°03'713.2
2017-Aug-16 06:30N 38°18' W 022°12'713.3
2017-Aug-16 05:59N 38°19' W 022°20'713.0
2017-Aug-16 05:27N 38°20' W 022°29'613.3
2017-Aug-16 05:00N 38°21' W 022°36'713.3
2017-Aug-16 04:30N 38°22' W 022°45'713.4
2017-Aug-16 04:00N 38°23' W 022°53'613.1
2017-Aug-16 03:30N 38°23' W 023°02'1112.8
2017-Aug-16 02:40N 38°25' W 023°15'213.0
2017-Aug-16 02:29N 38°25' W 023°18'612.8
2017-Aug-16 02:01N 38°26' W 023°26'712.9
2017-Aug-16 01:30N 38°27' W 023°34'613.1
2017-Aug-16 01:01N 38°27' W 023°42'612.9
2017-Aug-16 00:30N 38°28' W 023°51'713.1
2017-Aug-16 00:00N 38°29' W 023°59'613.0
2017-Aug-15 23:30N 38°30' W 024°07'713.3
2017-Aug-15 23:00N 38°30' W 024°16'612.9
2017-Aug-15 22:30N 38°31' W 024°24'612.8
2017-Aug-15 22:00N 38°32' W 024°32'613.0
2017-Aug-15 21:30N 38°33' W 024°40'713.0
2017-Aug-15 21:00N 38°33' W 024°49'713.4
2017-Aug-15 20:31N 38°34' W 024°57'713.2
2017-Aug-15 20:00N 38°35' W 025°06'713.6
2017-Aug-15 19:30N 38°35' W 025°14'713.6
2017-Aug-15 19:00N 38°36' W 025°23'713.1
2017-Aug-15 18:30N 38°37' W 025°31'713.4
2017-Aug-15 18:00N 38°37' W 025°40'713.5
2017-Aug-15 17:30N 38°38' W 025°48'713.6
2017-Aug-15 17:00N 38°39' W 025°57'713.5
2017-Aug-15 16:30N 38°39' W 026°06'713.8
2017-Aug-15 16:00N 38°40' W 026°14'713.7
2017-Aug-15 15:31N 38°41' W 026°23'713.9
2017-Aug-15 15:00N 38°41' W 026°32'510.8
2017-Aug-15 14:30N 38°42' W 026°39'1 1.2
2017-Aug-15 14:01N 38°42' W 026°39'2 3.3
2017-Aug-15 13:30N 38°42' W 026°42'612.8
2017-Aug-15 13:00N 38°43' W 026°50'713.5
2017-Aug-15 12:30N 38°43' W 026°58'4 0.2
2017-Aug-14 13:15N 38°43' W 027°03'0 1.6
2017-Aug-14 12:58N 38°43' W 027°03'4 5.7
2017-Aug-14 12:12N 38°41' W 026°59'310.5
2017-Aug-14 11:57N 38°39' W 026°56'613.1
2017-Aug-14 11:31N 38°35' W 026°51'713.4
2017-Aug-14 11:00N 38°30' W 026°45'612.0
2017-Aug-14 10:30N 38°25' W 026°40'612.4
2017-Aug-14 10:00N 38°21' W 026°34'612.7
2017-Aug-14 09:31N 38°16' W 026°29'612.4
2017-Aug-14 09:00N 38°12' W 026°24'612.4
2017-Aug-14 08:30N 38°07' W 026°18'612.7
2017-Aug-14 08:00N 38°03' W 026°13'612.5
2017-Aug-14 07:30N 37°58' W 026°07'4 7.5
2017-Aug-14 07:00N 37°55' W 026°05'1 1.8
2017-Aug-14 06:30N 37°56' W 026°05'1 1.4
2017-Aug-14 06:00N 37°56' W 026°05'2 3.3
2017-Aug-14 05:30N 37°55' W 026°03'612.0
2017-Aug-14 05:00N 37°51' W 025°58'612.6
2017-Aug-14 04:31N 37°46' W 025°53'611.9
2017-Aug-14 04:00N 37°42' W 025°47'612.1
2017-Aug-14 03:30N 37°43' W 025°40'1 1.6
2017-Aug-14 03:00N 37°44' W 025°40'0 0.0
2017-Aug-14 02:30N 37°44' W 025°40'0 0.0
2017-Aug-14 01:57N 37°44' W 025°40'0 0.0
2017-Aug-14 01:30N 37°44' W 025°40'0 0.0
2017-Aug-14 01:00N 37°44' W 025°40'0 0.0
2017-Aug-14 00:30N 37°44' W 025°40'0 0.0
2017-Aug-14 00:00N 37°44' W 025°40'0 0.0
2017-Aug-13 23:30N 37°44' W 025°40'0 0.0
2017-Aug-13 23:00N 37°44' W 025°40'0 0.0
2017-Aug-13 22:31N 37°44' W 025°40'0 0.0
2017-Aug-13 22:00N 37°44' W 025°40'0 0.0
2017-Aug-13 21:30N 37°44' W 025°40'0 0.0
2017-Aug-13 21:00N 37°44' W 025°40'0 0.0
2017-Aug-13 20:30N 37°44' W 025°40'0 0.0
2017-Aug-13 19:55N 37°44' W 025°40'0 0.0
2017-Aug-13 19:30N 37°44' W 025°40'0 0.0
2017-Aug-13 19:00N 37°44' W 025°40'0 0.0
2017-Aug-13 18:27N 37°44' W 025°40'0 0.0
2017-Aug-13 18:00N 37°44' W 025°40'0 0.0
2017-Aug-13 17:28N 37°44' W 025°40'0 0.0
2017-Aug-13 17:00N 37°44' W 025°40'0 0.0
2017-Aug-13 16:30N 37°44' W 025°40'0 0.0
2017-Aug-13 16:00N 37°44' W 025°40'0 0.0
2017-Aug-13 15:30N 37°44' W 025°40'0 0.0
2017-Aug-13 14:57N 37°44' W 025°40'0 0.0
2017-Aug-13 14:30N 37°44' W 025°40'0 0.0
2017-Aug-13 14:00N 37°44' W 025°40'0 0.0
2017-Aug-13 13:30N 37°44' W 025°40'0 0.0
2017-Aug-13 13:00N 37°44' W 025°40'0 0.0
2017-Aug-13 12:30N 37°44' W 025°40'0 0.0
2017-Aug-13 12:00N 37°44' W 025°40'0 0.0
2017-Aug-13 11:30N 37°44' W 025°40'0 0.0
2017-Aug-13 11:00N 37°44' W 025°40'0 0.0
2017-Aug-13 10:30N 37°44' W 025°40'0 0.0
2017-Aug-13 10:00N 37°44' W 025°40'0 0.0
2017-Aug-13 09:30N 37°44' W 025°40'0 0.0
2017-Aug-13 09:00N 37°44' W 025°40'0 0.0
2017-Aug-13 08:28N 37°44' W 025°40'0 0.0
2017-Aug-13 08:00N 37°44' W 025°40'0 0.0
2017-Aug-13 07:30N 37°44' W 025°40'0 0.0
2017-Aug-13 07:00N 37°44' W 025°40'0 0.0
2017-Aug-13 06:30N 37°44' W 025°40'0 0.0
2017-Aug-13 06:01N 37°44' W 025°40'0 0.0
2017-Aug-13 05:30N 37°44' W 025°40'0 0.0
2017-Aug-13 05:00N 37°44' W 025°40'0 0.0
2017-Aug-13 04:30N 37°44' W 025°40'0 0.0
2017-Aug-13 04:00N 37°44' W 025°40'0 0.0
2017-Aug-13 03:30N 37°44' W 025°40'0 0.0
2017-Aug-13 03:00N 37°44' W 025°40'0 0.0
2017-Aug-13 02:30N 37°44' W 025°40'0 0.0
2017-Aug-13 02:00N 37°44' W 025°40'0 0.0
2017-Aug-13 01:30N 37°44' W 025°40'0 0.0
2017-Aug-13 01:00N 37°44' W 025°40'0 0.0
2017-Aug-13 00:30N 37°44' W 025°40'0 0.0
2017-Aug-12 23:57N 37°44' W 025°40'0 0.0
2017-Aug-12 23:30N 37°44' W 025°40'0 0.0
2017-Aug-12 23:00N 37°44' W 025°40'0 0.0
2017-Aug-12 22:30N 37°44' W 025°40'0 0.0
2017-Aug-12 22:00N 37°44' W 025°40'0 0.0
2017-Aug-12 21:31N 37°44' W 025°40'0 0.0
2017-Aug-12 21:00N 37°44' W 025°40'0 0.0
2017-Aug-12 20:30N 37°44' W 025°40'0 0.0
2017-Aug-12 20:00N 37°44' W 025°40'0 0.0
2017-Aug-12 19:25N 37°44' W 025°40'0 0.0
2017-Aug-12 18:58N 37°44' W 025°40'0 0.0
2017-Aug-12 18:30N 37°44' W 025°40'0 0.0
2017-Aug-12 18:00N 37°44' W 025°40'0 0.0
2017-Aug-12 17:30N 37°44' W 025°40'0 0.0
2017-Aug-12 16:57N 37°44' W 025°40'0 0.0
2017-Aug-12 16:30N 37°44' W 025°40'0 0.4
2017-Aug-12 16:00N 37°44' W 025°40'2 3.8
2017-Aug-12 15:31N 37°43' W 025°38'1 2.2
2017-Aug-12 15:00N 37°43' W 025°37'510.5
2017-Aug-12 14:31N 37°40' W 025°31'713.4
2017-Aug-12 14:01N 37°40' W 025°22'713.2
2017-Aug-12 13:30N 37°40' W 025°14'713.5
2017-Aug-12 13:00N 37°40' W 025°05'713.4
2017-Aug-12 12:30N 37°40' W 024°57'713.2
2017-Aug-12 12:00N 37°41' W 024°49'713.4
2017-Aug-12 11:30N 37°41' W 024°40'713.4
2017-Aug-12 11:00N 37°41' W 024°32'613.2
2017-Aug-12 10:30N 37°41' W 024°23'713.2
2017-Aug-12 10:00N 37°41' W 024°15'713.3
2017-Aug-12 09:30N 37°41' W 024°07'713.3
2017-Aug-12 09:00N 37°41' W 023°58'713.3
2017-Aug-12 08:30N 37°41' W 023°50'713.2
2017-Aug-12 08:00N 37°42' W 023°41'5913.4
2017-Aug-12 03:36N 37°43' W 022°27'33313.4
2017-Aug-11 02:45N 37°49' W 015°25'513.4
2017-Aug-11 02:23N 37°49' W 015°19'7812.9
2017-Aug-10 20:20N 37°50' W 013°40'413.1
2017-Aug-10 20:00N 37°50' W 013°34'4112.8
2017-Aug-10 16:49N 37°51' W 012°42'612.6
2017-Aug-10 16:21N 37°51' W 012°35'411.7
2017-Aug-10 15:58N 37°51' W 012°29'511.8
2017-Aug-10 15:30N 37°51' W 012°23'711.7
2017-Aug-10 14:56N 37°52' W 012°14'2211.4
2017-Aug-10 12:58N 37°52' W 011°46'611.6
2017-Aug-10 12:28N 37°52' W 011°38'4112.0
2017-Aug-10 09:05N 37°53' W 010°47'212.0
2017-Aug-10 08:54N 37°53' W 010°44'511.8
2017-Aug-10 08:30N 37°53' W 010°38'611.7
2017-Aug-10 08:01N 37°53' W 010°31'611.9
2017-Aug-10 07:30N 37°53' W 010°23'611.4
2017-Aug-10 07:01N 37°53' W 010°16'611.1
2017-Aug-10 06:30N 37°53' W 010°09'610.9
2017-Aug-10 06:00N 37°53' W 010°02'510.8
2017-Aug-10 05:30N 37°54' W 009°55'511.0
2017-Aug-10 05:00N 37°54' W 009°48'510.7
2017-Aug-10 04:30N 37°54' W 009°41'510.7
2017-Aug-10 04:00N 37°54' W 009°35'510.8
2017-Aug-10 03:30N 37°54' W 009°28'611.6
2017-Aug-10 03:00N 37°54' W 009°20'611.6
2017-Aug-10 02:31N 37°54' W 009°13'611.8
2017-Aug-10 02:00N 37°54' W 009°05'612.4
2017-Aug-10 01:30N 37°54' W 008°58'4 8.9
2017-Aug-10 01:01N 37°57' W 008°53'0 0.3
2017-Aug-10 00:30N 37°57' W 008°53'0 0.0
2017-Aug-10 00:00N 37°57' W 008°53'0 0.0
2017-Aug-09 23:30N 37°57' W 008°53'0 0.0
2017-Aug-09 23:00N 37°57' W 008°53'0 0.0
2017-Aug-09 22:30N 37°57' W 008°53'0 0.0
2017-Aug-09 22:00N 37°57' W 008°53'0 0.0
2017-Aug-09 21:30N 37°57' W 008°53'0 0.0
2017-Aug-09 21:00N 37°57' W 008°53'0 0.0
2017-Aug-09 20:30N 37°57' W 008°53'0 0.0
2017-Aug-09 20:00N 37°57' W 008°53'0 0.0
2017-Aug-09 19:30N 37°57' W 008°53'0 0.0
2017-Aug-09 19:00N 37°57' W 008°53'0 0.0
2017-Aug-09 18:30N 37°57' W 008°53'0 0.0
2017-Aug-09 18:00N 37°57' W 008°53'0 0.0
2017-Aug-09 17:30N 37°57' W 008°53'0 0.0
2017-Aug-09 17:00N 37°57' W 008°53'0 0.0
2017-Aug-09 16:30N 37°57' W 008°53'0 0.0
2017-Aug-09 16:00N 37°57' W 008°53'0 0.0
2017-Aug-09 15:30N 37°57' W 008°53'0 0.0
2017-Aug-09 15:00N 37°57' W 008°53'0 0.0
2017-Aug-09 14:30N 37°57' W 008°53'0 0.0
2017-Aug-09 14:00N 37°57' W 008°53'0 0.0
2017-Aug-09 13:30N 37°57' W 008°53'0 0.0
2017-Aug-09 13:00N 37°57' W 008°53'0 0.0
2017-Aug-09 12:30N 37°57' W 008°53'0 0.0
2017-Aug-09 12:00N 37°57' W 008°53'0 0.0
2017-Aug-09 11:30N 37°57' W 008°53'0 0.0
2017-Aug-09 11:00N 37°57' W 008°53'0 0.0
2017-Aug-09 10:27N 37°57' W 008°53'0 0.0
2017-Aug-09 10:00N 37°57' W 008°53'0 0.0
2017-Aug-09 09:27N 37°57' W 008°53'0 0.0
2017-Aug-09 09:00N 37°57' W 008°53'0 0.0
2017-Aug-09 08:30N 37°57' W 008°53'0 0.0
2017-Aug-09 08:00N 37°57' W 008°53'0 0.0
2017-Aug-09 07:30N 37°57' W 008°53'0 0.0
2017-Aug-09 07:00N 37°57' W 008°53'0 0.0
2017-Aug-09 06:30N 37°57' W 008°53'0 0.0
2017-Aug-09 06:00N 37°57' W 008°53'0 0.0
2017-Aug-09 05:30N 37°57' W 008°53'0 0.0
2017-Aug-09 05:00N 37°57' W 008°53'0 0.0
2017-Aug-09 04:30N 37°57' W 008°53'0 0.0
2017-Aug-09 04:00N 37°57' W 008°53'0 0.0
2017-Aug-09 03:30N 37°57' W 008°53'0 0.0
2017-Aug-09 03:00N 37°57' W 008°53'0 0.0
2017-Aug-09 02:27N 37°57' W 008°53'0 0.0
2017-Aug-09 02:00N 37°57' W 008°53'0 0.0
2017-Aug-09 01:30N 37°57' W 008°53'0 0.0
2017-Aug-09 01:00N 37°57' W 008°53'0 0.0
2017-Aug-09 00:30N 37°57' W 008°53'0 0.0
2017-Aug-09 00:00N 37°57' W 008°53'0 0.0
2017-Aug-08 23:30N 37°57' W 008°53'0 0.0
2017-Aug-08 23:00N 37°57' W 008°53'0 0.0
2017-Aug-08 22:30N 37°57' W 008°53'0 0.0
2017-Aug-08 22:00N 37°57' W 008°53'0 0.0
2017-Aug-08 21:30N 37°57' W 008°53'0 0.0
2017-Aug-08 21:00N 37°57' W 008°53'0 0.0
2017-Aug-08 20:30N 37°57' W 008°53'0 0.0
2017-Aug-08 20:00N 37°57' W 008°53'0 0.0
2017-Aug-08 19:30N 37°57' W 008°53'0 0.0
2017-Aug-08 19:00N 37°57' W 008°53'0 0.0
2017-Aug-08 18:30N 37°57' W 008°53'0 0.0
2017-Aug-08 18:00N 37°57' W 008°53'0 0.0
2017-Aug-08 17:30N 37°57' W 008°53'0 0.0
2017-Aug-08 17:00N 37°57' W 008°53'0 0.0
2017-Aug-08 16:27N 37°57' W 008°53'0 0.0
2017-Aug-08 16:00N 37°57' W 008°53'0 0.0
2017-Aug-08 15:30N 37°57' W 008°53'0 0.0
2017-Aug-08 15:00N 37°57' W 008°53'0 0.0
2017-Aug-08 14:27N 37°57' W 008°53'0 0.0
2017-Aug-08 14:00N 37°57' W 008°53'0 0.0
2017-Aug-08 13:30N 37°57' W 008°53'0 0.0
2017-Aug-08 13:00N 37°57' W 008°53'0 0.0
2017-Aug-08 12:30N 37°57' W 008°53'0 0.0
2017-Aug-08 11:57N 37°57' W 008°53'0 0.0
2017-Aug-08 11:30N 37°57' W 008°53'0 0.0
2017-Aug-08 11:00N 37°57' W 008°53'  

Dump ship's entire track history